Time;durP1;ratioP1;P1;durP2;ratioP2;P2;SDS_P1;SDS_P2;PMS_P1;PMS_P2;Temp;Humidity;BMP_temperature;BMP_pressure;BME280_temperature;BME280_humidity;BME280_pressure;Samples;Min_cycle;Max_cycle;Signal;HPM_P1;HPM_P2
2022/08/26 00:02:25;;;;;;;40.28;31.85;;;;;;;23.72;85.96;100325.69;8391272;28;20044;-49
2022/08/26 00:06:26;;;;;;;45.80;36.25;;;;;;;23.64;87.31;100325.16;8390793;28;20043;-50
2022/08/26 00:10:27;;;;;;;43.90;36.30;;;;;;;23.64;87.84;100331.53;8390679;28;20387;-50
2022/08/26 00:14:28;;;;;;;56.45;38.65;;;;;;;23.63;88.14;100329.00;8390834;28;20032;-49
2022/08/26 00:18:28;;;;;;;56.80;43.78;;;;;;;23.58;89.39;100339.88;8390230;28;20032;-49
2022/08/26 00:22:29;;;;;;;66.60;46.72;;;;;;;23.54;89.74;100336.72;8390628;28;20089;-49
2022/08/26 00:26:29;;;;;;;63.70;47.53;;;;;;;23.51;90.76;100339.09;8374589;28;20116;-48
2022/08/26 00:30:30;;;;;;;66.88;49.58;;;;;;;23.47;91.04;100338.69;8377450;28;20041;-49
2022/08/26 00:34:30;;;;;;;76.35;53.92;;;;;;;23.41;92.00;100347.91;8381986;28;20033;-49
2022/08/26 00:38:32;;;;;;;70.25;50.60;;;;;;;23.37;92.33;100351.34;8383888;28;20071;-51
2022/08/26 00:42:32;;;;;;;73.25;51.80;;;;;;;23.34;92.54;100347.13;8387672;28;20529;-48
2022/08/26 00:46:38;;;;;;;64.97;49.88;;;;;;;23.27;93.56;100340.84;8390181;28;20434;-48
2022/08/26 00:50:52;;;;;;;74.07;53.75;;;;;;;23.19;94.16;100343.84;8390163;28;20077;-49
2022/08/26 00:55:01;;;;;;;76.63;53.45;;;;;;;23.13;95.06;100348.34;8389928;28;20036;-49
2022/08/26 00:59:09;;;;;;;76.15;55.25;;;;;;;23.02;96.17;100354.59;8390133;28;20036;-51
2022/08/26 01:03:11;;;;;;;73.28;55.88;;;;;;;22.91;97.43;100352.53;8389702;28;20064;-53
2022/08/26 01:07:11;;;;;;;78.72;55.13;;;;;;;22.87;97.73;100354.06;8390411;28;20036;-49
2022/08/26 01:11:12;;;;;;;82.82;55.03;;;;;;;22.83;98.14;100355.59;8390104;28;20525;-51
2022/08/26 01:15:18;;;;;;;78.32;54.58;;;;;;;22.73;99.29;100349.75;8387811;28;20037;-49
2022/08/26 01:19:28;;;;;;;83.40;54.13;;;;;;;22.66;99.68;100354.44;8384269;28;20068;-51
2022/08/26 01:23:33;;;;;;;74.72;51.65;;;;;;;22.62;100.00;100363.38;8389631;28;20037;-51
2022/08/26 01:27:34;;;;;;;76.30;51.58;;;;;;;22.55;100.00;100357.94;8387577;28;20036;-53
2022/08/26 01:31:40;;;;;;;70.22;52.35;;;;;;;22.55;100.00;100363.44;8384826;28;20131;-52
2022/08/26 01:35:41;;;;;;;68.72;50.70;;;;;;;22.52;100.00;100369.38;8395584;28;20486;-49
2022/08/26 01:39:46;;;;;;;73.13;51.75;;;;;;;22.49;100.00;100375.31;8395797;28;20460;-53
2022/08/26 01:43:52;;;;;;;73.32;51.95;;;;;;;22.46;100.00;100378.50;8395168;28;20183;-49
2022/08/26 01:47:55;;;;;;;78.72;52.83;;;;;;;22.42;100.00;100387.44;8396735;28;20032;-54
2022/08/26 01:51:57;;;;;;;77.03;52.47;;;;;;;22.40;100.00;100384.91;8392979;28;20741;-53
2022/08/26 01:56:01;;;;;;;72.70;50.80;;;;;;;22.36;100.00;100396.56;8394509;28;20043;-51
2022/08/26 02:00:06;;;;;;;74.28;48.83;;;;;;;22.31;100.00;100391.72;8394657;28;20089;-52
2022/08/26 02:04:17;;;;;;;78.53;51.78;;;;;;;22.25;100.00;100389.84;8394505;28;20055;-51
2022/08/26 02:08:21;;;;;;;84.78;52.83;;;;;;;22.21;100.00;100399.63;8394543;28;20028;-49
2022/08/26 02:12:22;;;;;;;78.10;52.42;;;;;;;22.25;100.00;100400.88;8394464;28;20152;-49
2022/08/26 02:16:27;;;;;;;77.25;52.67;;;;;;;22.17;100.00;100401.09;8395326;28;20054;-49
2022/08/26 02:20:28;;;;;;;80.28;55.17;;;;;;;22.19;100.00;100400.88;8372921;28;20044;-54
2022/08/26 02:24:46;;;;;;;81.47;52.35;;;;;;;22.19;100.00;100410.00;8391113;28;20044;-51
2022/08/26 02:28:55;;;;;;;75.95;51.67;;;;;;;22.31;100.00;100410.16;8394839;28;20028;-53
2022/08/26 02:33:00;;;;;;;70.47;49.30;;;;;;;22.34;100.00;100421.59;8397443;28;20036;-52
2022/08/26 02:37:04;;;;;;;75.90;49.42;;;;;;;22.42;100.00;100417.75;8397449;28;20029;-52
2022/08/26 02:41:05;;;;;;;75.47;48.00;;;;;;;22.54;100.00;100427.03;8394889;28;20044;-51
2022/08/26 02:45:06;;;;;;;63.55;46.10;;;;;;;22.59;100.00;100422.56;8395047;28;20040;-52
2022/08/26 02:49:06;;;;;;;63.92;45.42;;;;;;;22.62;100.00;100429.53;8393320;28;20029;-52
2022/08/26 02:53:07;;;;;;;73.40;47.78;;;;;;;22.62;100.00;100426.75;8393394;28;20394;-52
2022/08/26 02:57:09;;;;;;;68.70;47.25;;;;;;;22.61;100.00;100425.94;8392338;28;20540;-52
2022/08/26 03:01:29;;;;;;;67.28;46.40;;;;;;;22.66;100.00;100417.00;8353505;28;20056;-52
2022/08/26 03:05:30;;;;;;;62.33;43.80;;;;;;;22.61;100.00;100409.41;8359816;28;20045;-52
2022/08/26 03:09:30;;;;;;;66.05;44.47;;;;;;;22.66;100.00;100409.56;8349627;28;20035;-52
2022/08/26 03:13:31;;;;;;;61.25;44.05;;;;;;;22.63;100.00;100409.19;8384322;28;20028;-52
2022/08/26 03:17:31;;;;;;;61.05;43.28;;;;;;;22.50;100.00;100393.56;8369689;28;20087;-53
2022/08/26 03:21:32;;;;;;;61.28;42.83;;;;;;;22.61;100.00;100409.41;8388653;28;20040;-49
2022/08/26 03:25:32;;;;;;;63.30;40.67;;;;;;;22.67;100.00;100405.75;8392273;28;20033;-53
2022/08/26 03:30:43;;;;;;;55.22;39.33;;;;;;;22.59;100.00;100407.91;8392208;28;20032;-53
2022/08/26 03:33:54;;;;;;;58.17;40.03;;;;;;;22.57;100.00;100416.41;8391275;28;20051;-52
2022/08/26 03:37:54;;;;;;;51.92;39.03;;;;;;;22.70;100.00;100416.34;8392409;28;20043;-50
2022/08/26 03:41:56;;;;;;;54.40;37.40;;;;;;;22.62;100.00;100413.00;8392022;28;20497;-52
2022/08/26 03:45:56;;;;;;;57.72;37.45;;;;;;;22.65;100.00;100418.06;8391165;28;20055;-53
2022/08/26 03:49:58;;;;;;;54.77;37.10;;;;;;;22.59;100.00;100417.03;8385064;28;20036;-52
2022/08/26 03:53:59;;;;;;;51.33;36.83;;;;;;;22.54;100.00;100422.34;8390663;28;20625;-52
2022/08/26 03:58:00;;;;;;;48.67;34.50;;;;;;;22.59;100.00;100430.81;8388006;28;20064;-51
2022/08/26 04:02:01;;;;;;;48.50;35.33;;;;;;;22.54;100.00;100416.03;8378160;28;20044;-52
2022/08/26 04:06:02;;;;;;;50.40;34.35;;;;;;;22.51;100.00;100417.28;8391193;28;20037;-52
2022/08/26 04:10:03;;;;;;;53.92;35.08;;;;;;;22.52;100.00;100421.75;8386324;28;20041;-51
2022/08/26 04:14:07;;;;;;;50.83;33.83;;;;;;;22.49;100.00;100422.16;8384698;28;20028;-51
2022/08/26 04:18:08;;;;;;;50.50;32.88;;;;;;;22.43;100.00;100414.78;8367827;28;20045;-52
2022/08/26 04:22:08;;;;;;;53.15;34.25;;;;;;;22.39;100.00;100419.03;8348821;28;20045;-52
2022/08/26 04:26:09;;;;;;;47.13;31.20;;;;;;;22.43;100.00;100413.91;8391436;28;20048;-52
2022/08/26 04:30:10;;;;;;;47.30;29.83;;;;;;;22.48;100.00;100417.69;8391677;28;20052;-52
2022/08/26 04:34:10;;;;;;;45.13;28.92;;;;;;;22.42;100.00;100410.31;8391110;28;20036;-53
2022/08/26 04:38:11;;;;;;;40.45;28.40;;;;;;;22.39;100.00;100418.19;8383191;28;20039;-50
2022/08/26 04:42:12;;;;;;;48.92;28.20;;;;;;;22.44;100.00;100421.09;8381196;28;20040;-49
2022/08/26 04:46:16;;;;;;;37.60;27.65;;;;;;;22.39;100.00;100413.53;8378942;28;20056;-52
2022/08/26 04:50:19;;;;;;;44.55;27.15;;;;;;;22.41;100.00;100427.06;8368757;28;20470;-52
2022/08/26 04:54:19;;;;;;;37.22;26.25;;;;;;;22.38;100.00;100417.31;8368447;28;20024;-52
2022/08/26 04:58:21;;;;;;;41.45;25.35;;;;;;;22.41;100.00;100427.06;8338160;28;20064;-54
2022/08/26 05:02:21;;;;;;;37.78;24.55;;;;;;;22.42;100.00;100426.84;8364851;28;20049;-54
2022/08/26 05:06:21;;;;;;;39.85;23.60;;;;;;;22.38;100.00;100433.84;8354497;28;20182;-54
2022/08/26 05:10:22;;;;;;;32.38;23.17;;;;;;;22.43;100.00;100431.31;8361663;28;20476;-54
2022/08/26 05:14:23;;;;;;;36.03;21.20;;;;;;;22.43;100.00;100439.56;8388806;28;20043;-54
2022/08/26 05:18:26;;;;;;;37.45;21.80;;;;;;;22.47;100.00;100437.19;8383787;28;20037;-54
2022/08/26 05:22:26;;;;;;;33.38;20.67;;;;;;;22.46;100.00;100441.88;8374200;28;20040;-52
2022/08/26 05:26:30;;;;;;;31.60;19.75;;;;;;;22.44;100.00;100440.41;8381315;28;20048;-52
2022/08/26 05:30:31;;;;;;;36.73;19.00;;;;;;;22.50;100.00;100437.66;8390351;28;20052;-53
2022/08/26 05:34:31;;;;;;;30.90;18.50;;;;;;;22.45;100.00;100445.69;8381403;28;20078;-52
2022/08/26 05:38:31;;;;;;;27.40;17.23;;;;;;;22.87;96.83;100450.59;8385369;28;20071;-50
2022/08/26 05:42:32;;;;;;;31.73;16.87;;;;;;;22.57;99.75;100443.97;8385069;28;20047;-53
2022/08/26 05:46:35;;;;;;;25.60;16.85;;;;;;;22.57;100.00;100438.44;8386921;28;20278;-53
2022/08/26 05:50:39;;;;;;;26.05;15.00;;;;;;;22.62;100.00;100441.41;8391465;28;20055;-53
2022/08/26 05:54:39;;;;;;;29.73;15.55;;;;;;;22.75;99.01;100451.53;8391736;28;20029;-53
2022/08/26 05:58:42;;;;;;;24.98;14.88;;;;;;;22.82;97.86;100452.31;8391320;28;20101;-53
2022/08/26 06:02:42;;;;;;;30.08;15.52;;;;;;;22.87;97.26;100450.59;8391142;28;20520;-53
2022/08/26 06:06:43;;;;;;;27.80;14.55;;;;;;;22.98;96.52;100457.31;8390949;28;20424;-53
2022/08/26 06:10:50;;;;;;;26.50;12.75;;;;;;;23.04;96.07;100457.28;8391449;28;20032;-53
2022/08/26 06:14:50;;;;;;;30.33;12.90;;;;;;;23.07;95.66;100456.81;8391856;28;20579;-54
2022/08/26 06:18:52;;;;;;;20.83;12.20;;;;;;;23.07;95.58;100462.34;8390624;28;23948;-54
2022/08/26 06:27:12;;;;;;;26.95;12.23;;;;;;;23.19;94.42;100459.72;8390751;28;20028;-54
2022/08/26 06:31:14;;;;;;;22.90;11.67;;;;;;;23.18;94.63;100463.53;8390791;28;20035;-54
2022/08/26 06:35:15;;;;;;;25.00;11.88;;;;;;;23.18;94.44;100464.38;8390607;28;20278;-54
2022/08/26 06:39:17;;;;;;;22.40;10.98;;;;;;;23.29;93.87;100476.63;8390886;28;20036;-54
2022/08/26 06:43:20;;;;;;;20.33;10.75;;;;;;;23.34;93.22;100478.72;8390136;28;20032;-54
2022/08/26 06:47:21;;;;;;;19.85;10.70;;;;;;;23.41;93.19;100482.25;8390284;28;20037;-54
2022/08/26 06:51:25;;;;;;;16.85;10.65;;;;;;;23.26;93.50;100479.84;8390259;28;20040;-54
2022/08/26 06:55:26;;;;;;;27.50;10.88;;;;;;;23.19;94.43;100477.13;8389817;28;20039;-53
2022/08/26 06:59:27;;;;;;;20.42;11.07;;;;;;;23.25;93.98;100475.41;8390124;28;20063;-54
2022/08/26 07:03:27;;;;;;;16.45;10.07;;;;;;;23.18;93.74;100486.44;8389810;28;20059;-56
2022/08/26 07:07:28;;;;;;;19.80;10.20;;;;;;;23.25;94.67;100493.84;8389697;28;20116;-52
2022/08/26 07:11:30;;;;;;;20.42;10.30;;;;;;;23.37;93.29;100483.78;8388088;28;20124;-52
2022/08/26 07:15:30;;;;;;;22.35;10.20;;;;;;;23.28;93.30;100482.38;8389495;28;20032;-50
2022/08/26 07:19:30;;;;;;;16.88;11.10;;;;;;;23.10;93.81;100483.97;8388801;28;20044;-54
2022/08/26 07:23:32;;;;;;;15.68;9.20;;;;;;;23.13;94.46;100489.03;8388761;28;20028;-50
2022/08/26 07:27:36;;;;;;;22.35;9.95;;;;;;;23.15;94.09;100492.41;8387862;28;20149;-51
2022/08/26 07:31:37;;;;;;;;;;;;;;;23.07;94.42;100495.44;8389483;28;20576;-52
2022/08/26 07:35:38;;;;;;;16.27;10.27;;;;;;;22.99;94.13;100501.22;8387094;28;20714;-52
2022/08/26 07:39:40;;;;;;;18.40;10.10;;;;;;;23.01;94.70;100501.84;8388252;28;20081;-52
2022/08/26 07:43:40;;;;;;;18.00;9.48;;;;;;;23.08;94.38;100508.16;8388236;28;20056;-51
2022/08/26 07:47:41;;;;;;;19.58;9.60;;;;;;;23.08;93.60;100516.44;8388398;28;20028;-53
2022/08/26 07:51:42;;;;;;;17.35;10.32;;;;;;;23.02;93.64;100514.56;8388511;28;20040;-52
2022/08/26 07:55:42;;;;;;;21.75;10.60;;;;;;;23.21;93.64;100519.09;8388001;28;20052;-50
2022/08/26 07:59:43;;;;;;;25.20;11.90;;;;;;;23.12;92.63;100514.91;8387786;28;20040;-49
2022/08/26 08:03:43;;;;;;;19.60;11.80;;;;;;;23.10;92.30;100522.59;8387284;28;20271;-53
2022/08/26 08:07:44;;;;;;;20.10;11.40;;;;;;;23.15;92.55;100517.22;8380216;28;20025;-53
2022/08/26 08:11:44;;;;;;;27.20;11.07;;;;;;;23.14;92.11;100515.53;8387009;28;20127;-50
2022/08/26 08:15:45;;;;;;;18.77;10.25;;;;;;;23.18;92.28;100514.03;8388132;28;20063;-52
2022/08/26 08:19:45;;;;;;;17.27;9.73;;;;;;;23.25;91.30;100513.16;8387271;28;20040;-52
2022/08/26 08:23:46;;;;;;;15.02;9.10;;;;;;;23.35;90.83;100519.03;8387525;28;20094;-52
2022/08/26 08:27:47;;;;;;;15.57;7.35;;;;;;;23.38;91.19;100513.06;8388342;28;20033;-52
2022/08/26 08:31:48;;;;;;;15.52;7.75;;;;;;;23.53;91.03;100516.34;8387907;28;20088;-51
2022/08/26 08:35:48;;;;;;;17.92;8.25;;;;;;;23.41;90.60;100518.16;8387240;28;20547;-52
2022/08/26 08:39:49;;;;;;;12.18;6.82;;;;;;;23.48;90.71;100517.03;8397220;28;20036;-51
2022/08/26 08:43:50;;;;;;;14.75;8.80;;;;;;;23.56;89.85;100511.25;8393989;28;20043;-52
2022/08/26 08:47:55;;;;;;;15.65;7.75;;;;;;;23.33;90.93;100521.19;8394054;28;20028;-52
2022/08/26 08:52:03;;;;;;;14.68;7.25;;;;;;;23.42;91.60;100525.38;8393961;28;20494;-52
2022/08/26 08:56:22;;;;;;;15.75;8.05;;;;;;;23.30;91.35;100527.16;8394109;28;20119;-52
2022/08/26 09:00:23;;;;;;;14.70;7.82;;;;;;;23.33;91.24;100526.72;8392691;28;20044;-53
2022/08/26 09:05:03;;;;;;;12.40;7.55;;;;;;;23.25;91.56;100529.72;8393048;28;20105;-52
2022/08/26 09:09:06;;;;;;;16.30;7.35;;;;;;;23.21;91.98;100530.13;8392819;28;20037;-50
2022/08/26 09:13:10;;;;;;;14.55;6.22;;;;;;;23.15;92.51;100536.53;8393439;28;20090;-50
2022/08/26 09:17:36;;;;;;;18.92;6.72;;;;;;;23.26;92.02;100532.25;8393252;28;20028;-52
2022/08/26 09:21:37;;;;;;;17.55;8.32;;;;;;;23.49;90.13;100534.44;8390701;28;20459;-52
2022/08/26 09:25:58;;;;;;;11.95;6.50;;;;;;;23.49;90.84;100545.47;8391243;28;20041;-52
2022/08/26 09:29:58;;;;;;;17.38;5.95;;;;;;;23.56;89.91;100544.38;8392759;28;20102;-50
2022/08/26 09:34:22;;;;;;;21.23;7.00;;;;;;;23.70;89.03;100545.13;8392427;28;20033;-49
2022/08/26 09:38:26;;;;;;;10.50;6.32;;;;;;;23.64;89.45;100551.53;8390827;28;20045;-51
2022/08/26 09:42:27;;;;;;;16.58;6.78;;;;;;;23.63;89.33;100545.16;8392415;28;20094;-51
2022/08/26 09:46:27;;;;;;;18.40;7.43;;;;;;;23.69;89.21;100548.97;8392414;28;20493;-52
2022/08/26 09:50:32;;;;;;;18.75;7.32;;;;;;;23.75;87.87;100545.28;8361914;28;20259;-52
2022/08/26 09:54:33;;;;;;;12.20;7.40;;;;;;;23.60;88.62;100550.28;8357575;28;20079;-49
2022/08/26 09:58:37;;;;;;;12.60;7.35;;;;;;;23.58;87.82;100545.00;8358424;28;20033;-51
2022/08/26 10:02:41;;;;;;;14.68;9.00;;;;;;;23.63;87.21;100539.63;8357999;28;20510;-50
2022/08/26 10:06:54;;;;;;;13.32;6.35;;;;;;;23.78;86.82;100542.91;8358119;28;20025;-50
2022/08/26 10:10:57;;;;;;;13.15;8.25;;;;;;;23.62;85.83;100540.72;8358902;28;20398;-52
2022/08/26 10:15:06;;;;;;;11.52;7.78;;;;;;;23.83;85.00;100536.72;8358101;28;20044;-49
2022/08/26 10:19:12;;;;;;;16.08;7.90;;;;;;;23.77;85.00;100535.69;8364416;28;20047;-52
2022/08/26 10:23:18;;;;;;;9.50;7.68;;;;;;;23.84;84.95;100536.47;8355672;28;20047;-50
2022/08/26 10:27:29;;;;;;;17.23;7.32;;;;;;;23.83;85.55;100539.47;8358231;28;20407;-52
2022/08/26 10:31:38;;;;;;;15.60;5.55;;;;;;;23.81;85.46;100528.66;8382562;28;20743;-53
2022/08/26 10:35:52;;;;;;;14.60;5.50;;;;;;;23.90;85.64;100538.34;8389577;28;20055;-53
2022/08/26 10:40:00;;;;;;;12.15;5.57;;;;;;;23.88;86.88;100531.38;8390225;28;20044;-52
2022/08/26 10:44:03;;;;;;;9.73;5.35;;;;;;;24.05;86.68;100538.00;8390717;28;20086;-53
2022/08/26 10:48:08;;;;;;;12.40;5.28;;;;;;;24.11;86.41;100518.63;8389869;28;20024;-52
2022/08/26 10:52:40;;;;;;;11.50;5.35;;;;;;;24.09;86.30;100519.94;8389520;28;20383;-53
2022/08/26 10:56:49;;;;;;;13.80;5.63;;;;;;;24.04;86.47;100523.38;8388851;28;20045;-52
2022/08/26 11:01:58;;;;;;;12.43;4.68;;;;;;;24.06;86.55;100515.69;8388398;28;20398;-53
2022/08/26 11:05:22;;;;;;;13.35;5.45;;;;;;;24.07;87.17;100519.31;8388284;28;20037;-53
2022/08/26 11:09:44;;;;;;;12.13;5.78;;;;;;;23.81;87.25;100520.38;8389648;28;20036;-53
2022/08/26 11:14:09;;;;;;;11.18;5.18;;;;;;;23.94;87.62;100513.88;8388627;28;20028;-52
2022/08/26 11:18:30;;;;;;;15.32;4.95;;;;;;;23.98;87.61;100527.03;8388084;28;20210;-53
2022/08/26 11:22:34;;;;;;;11.45;5.05;;;;;;;24.00;86.71;100515.78;8388086;28;20120;-53
2022/08/26 11:26:35;;;;;;;12.98;4.55;;;;;;;24.29;86.29;100512.25;8388248;28;20036;-51
2022/08/26 11:30:40;;;;;;;11.63;4.38;;;;;;;24.41;85.53;100510.41;8375838;28;20044;-53
2022/08/26 11:34:58;;;;;;;13.00;4.45;;;;;;;24.91;82.30;100517.47;8386125;28;20032;-53
2022/08/26 11:39:00;;;;;;;20.65;4.38;;;;;;;24.44;84.22;100512.72;8375578;28;20474;-52
2022/08/26 11:43:06;;;;;;;9.95;4.72;;;;;;;24.21;85.73;100515.34;8374211;28;20036;-50
2022/08/26 11:47:09;;;;;;;11.45;4.68;;;;;;;24.28;86.01;100516.09;8380376;28;20362;-54
2022/08/26 11:51:29;;;;;;;14.25;4.60;;;;;;;24.14;86.15;100517.31;8384286;28;20389;-52
2022/08/26 11:55:33;;;;;;;16.40;4.47;;;;;;;24.22;85.37;100517.03;8384559;28;20036;-51
2022/08/26 11:59:37;;;;;;;11.98;3.63;;;;;;;24.23;85.54;100513.19;8383087;28;20446;-53
2022/08/26 12:07:52;;;;;;;8.85;3.70;;;;;;;24.26;85.32;100518.25;8365456;27;20377;-52
2022/08/26 12:12:26;;;;;;;13.82;4.18;;;;;;;24.35;84.44;100522.41;8373012;28;20541;-53
2022/08/26 12:16:30;;;;;;;9.07;3.95;;;;;;;24.25;84.07;100522.94;8370081;28;20160;-53
2022/08/26 12:20:53;;;;;;;8.32;4.00;;;;;;;24.25;84.43;100527.63;8367373;28;20116;-50
2022/08/26 12:24:57;;;;;;;8.15;3.92;;;;;;;23.92;87.37;100529.81;8364589;28;20045;-53
2022/08/26 12:29:04;;;;;;;13.68;5.00;;;;;;;23.77;88.73;100526.56;8358359;28;20095;-53
2022/08/26 12:33:11;;;;;;;11.38;4.43;;;;;;;23.97;87.11;100530.88;8368292;28;20048;-53
2022/08/26 12:37:14;;;;;;;10.88;4.82;;;;;;;24.24;85.83;100526.75;8368084;28;20040;-51
2022/08/26 12:41:43;;;;;;;9.27;4.18;;;;;;;24.37;85.43;100532.13;8367690;28;20450;-50
2022/08/26 12:45:59;;;;;;;11.50;4.00;;;;;;;24.26;84.73;100529.31;8361018;28;20107;-52
2022/08/26 12:54:16;;;;;;;16.67;4.40;;;;;;;24.11;85.16;100526.06;8392023;27;20957;-52
2022/08/26 12:58:25;;;;;;;15.20;3.95;;;;;;;24.19;84.92;100528.53;8352156;28;20033;-52
2022/08/26 13:02:34;;;;;;;10.07;3.72;;;;;;;24.46;82.90;100514.19;8356272;28;20449;-52
2022/08/26 13:06:34;;;;;;;13.55;3.30;;;;;;;24.70;83.05;100510.50;8357320;28;20045;-49
2022/08/26 13:10:37;;;;;;;12.90;4.13;;;;;;;24.87;81.64;100510.72;8349315;28;20069;-50
2022/08/26 13:14:39;;;;;;;12.38;4.32;;;;;;;24.90;81.37;100505.56;8361776;28;20099;-52
2022/08/26 13:18:40;;;;;;;7.38;3.28;;;;;;;24.45;83.52;100508.88;8352894;28;20534;-53
2022/08/26 13:22:40;;;;;;;13.05;3.97;;;;;;;24.21;85.10;100515.34;8362490;28;20509;-48
2022/08/26 13:26:42;;;;;;;11.83;4.17;;;;;;;24.12;84.38;100513.94;8356959;28;20069;-50
2022/08/26 13:30:45;;;;;;;6.05;2.80;;;;;;;24.06;84.51;100512.09;8351696;28;20291;-49
2022/08/26 13:34:48;;;;;;;10.43;2.80;;;;;;;24.17;84.32;100506.66;8357020;28;20571;-50
2022/08/26 13:38:49;;;;;;;8.80;2.75;;;;;;;24.08;84.23;100498.88;8350303;28;20430;-53
2022/08/26 13:42:49;;;;;;;8.05;2.25;;;;;;;24.09;82.79;100495.06;8356574;28;20064;-53
2022/08/26 13:46:50;;;;;;;8.35;2.97;;;;;;;24.36;82.53;100499.19;8360197;28;20434;-49
2022/08/26 13:50:51;;;;;;;11.48;2.70;;;;;;;24.29;82.15;100498.44;8358667;28;20448;-51
2022/08/26 13:54:51;;;;;;;12.65;2.83;;;;;;;24.52;81.07;100490.31;8367882;28;20162;-51
2022/08/26 13:58:52;;;;;;;9.88;2.38;;;;;;;24.42;81.07;100490.00;8354485;28;20071;-51
2022/08/26 14:02:52;;;;;;;10.73;3.15;;;;;;;24.36;81.14;100490.91;8356655;28;20049;-51
2022/08/26 14:06:53;;;;;;;7.03;2.28;;;;;;;24.41;81.03;100471.72;8337069;28;20034;-53
2022/08/26 14:10:53;;;;;;;7.25;2.92;;;;;;;24.42;81.02;100474.25;8330740;28;20042;-52
2022/08/26 14:14:54;;;;;;;7.78;2.75;;;;;;;24.46;80.77;100474.66;8338256;28;20048;-53
2022/08/26 14:18:54;;;;;;;7.53;2.63;;;;;;;24.52;80.94;100482.03;8331771;28;20037;-52
2022/08/26 14:22:55;;;;;;;11.68;2.85;;;;;;;24.76;80.42;100481.94;8315650;28;20060;-51
2022/08/26 14:26:56;;;;;;;11.75;2.33;;;;;;;24.83;79.96;100476.31;8320588;28;20053;-53
2022/08/26 14:30:57;;;;;;;9.80;3.00;;;;;;;25.34;78.61;100478.56;8322848;28;20064;-50
2022/08/26 14:34:57;;;;;;;12.23;3.63;;;;;;;25.40;77.14;100472.91;8333318;28;20048;-49
2022/08/26 14:39:15;;;;;;;13.23;3.08;;;;;;;25.22;77.68;100480.41;8334422;28;20570;-51
2022/08/26 14:43:21;;;;;;;11.07;2.95;;;;;;;25.02;78.42;100481.56;8354385;28;20033;-51
2022/08/26 14:47:21;;;;;;;11.27;3.55;;;;;;;24.96;78.31;100473.34;8347419;28;20045;-51
2022/08/26 14:51:22;;;;;;;8.50;3.17;;;;;;;24.95;78.74;100479.97;8348828;28;20148;-49
2022/08/26 14:55:23;;;;;;;9.57;3.30;;;;;;;25.06;78.21;100481.91;8346188;28;20052;-53
2022/08/26 14:59:30;;;;;;;9.00;2.63;;;;;;;25.07;77.87;100482.78;8352633;28;20037;-51
2022/08/26 15:03:30;;;;;;;8.20;2.50;;;;;;;25.41;77.01;100476.53;8350627;28;20045;-52
2022/08/26 15:07:31;;;;;;;14.02;3.33;;;;;;;25.31;77.15;100479.81;8358838;28;20555;-53
2022/08/26 15:11:32;;;;;;;14.57;3.65;;;;;;;25.26;76.75;100481.63;8355303;28;20041;-53
2022/08/26 15:15:32;;;;;;;11.35;2.25;;;;;;;25.03;79.93;100483.25;8350441;28;20041;-53
2022/08/26 15:19:33;;;;;;;17.00;2.63;;;;;;;24.52;82.70;100485.59;8352557;28;20040;-52
2022/08/26 15:23:34;;;;;;;8.80;2.78;;;;;;;24.38;84.11;100486.88;8353412;28;20085;-51
2022/08/26 15:27:35;;;;;;;9.95;3.22;;;;;;;24.50;82.83;100484.16;8352411;28;20091;-52
2022/08/26 15:31:35;;;;;;;9.65;2.90;;;;;;;24.51;83.09;100477.53;8351275;28;20505;-51
2022/08/26 15:35:36;;;;;;;16.42;2.92;;;;;;;24.52;83.34;100479.25;8353394;28;20044;-51
2022/08/26 15:39:36;;;;;;;10.70;3.00;;;;;;;24.55;82.66;100465.78;8354081;28;20098;-53
2022/08/26 15:43:37;;;;;;;15.05;3.03;;;;;;;24.28;84.19;100469.13;8353302;28;20037;-51
2022/08/26 15:47:38;;;;;;;12.13;3.45;;;;;;;24.14;85.19;100478.63;8356462;28;20041;-53
2022/08/26 15:51:40;;;;;;;13.30;3.78;;;;;;;23.91;85.97;100487.53;8350202;28;20040;-51
2022/08/26 15:55:40;;;;;;;10.43;3.92;;;;;;;23.79;86.67;100483.00;8353500;28;20165;-52
2022/08/26 15:59:41;;;;;;;14.03;3.83;;;;;;;23.61;87.90;100474.69;8355919;28;20552;-53
2022/08/26 16:03:48;;;;;;;12.77;2.85;;;;;;;23.53;88.40;100473.03;8354210;28;20267;-51
2022/08/26 16:07:48;;;;;;;11.43;3.22;;;;;;;23.49;88.31;100470.97;8355202;28;20036;-51
2022/08/26 16:11:49;;;;;;;9.50;2.97;;;;;;;23.62;88.14;100465.31;8352864;28;20116;-50
2022/08/26 16:15:49;;;;;;;13.83;3.40;;;;;;;23.65;88.00;100468.47;8354820;28;20288;-52
2022/08/26 16:19:50;;;;;;;12.17;3.33;;;;;;;23.44;88.34;100468.88;8353960;28;20426;-51
2022/08/26 16:23:50;;;;;;;11.18;3.28;;;;;;;23.16;90.05;100471.19;8354156;28;20420;-52
2022/08/26 16:27:51;;;;;;;15.75;3.65;;;;;;;23.15;90.32;100461.22;8353984;28;20040;-51
2022/08/26 16:31:53;;;;;;;14.20;3.20;;;;;;;23.11;90.17;100468.25;8352343;28;20045;-50
2022/08/26 16:35:54;;;;;;;7.07;2.90;;;;;;;23.06;89.66;100479.94;8344306;28;20555;-52
2022/08/26 16:39:54;;;;;;;11.10;2.40;;;;;;;23.00;89.96;100489.09;8345122;28;20465;-50
2022/08/26 16:44:07;;;;;;;8.20;2.40;;;;;;;22.93;90.25;100482.78;8341696;28;20064;-51
2022/08/26 16:48:08;;;;;;;7.97;1.95;;;;;;;22.92;90.17;100488.53;8349173;28;20053;-52
2022/08/26 16:52:10;;;;;;;5.65;2.05;;;;;;;22.88;90.10;100499.13;8355432;28;20198;-52
2022/08/26 16:56:12;;;;;;;11.82;2.15;;;;;;;22.91;90.03;100506.97;8347361;28;20041;-53
2022/08/26 17:00:19;;;;;;;5.10;2.35;;;;;;;23.28;87.65;100515.47;8335266;28;20139;-49
2022/08/26 17:04:20;;;;;;;4.55;1.88;;;;;;;22.93;89.57;100501.22;8338989;28;20074;-53
2022/08/26 17:08:21;;;;;;;4.18;1.48;;;;;;;22.90;90.61;100504.44;8325882;28;20091;-53
2022/08/26 17:12:21;;;;;;;14.63;2.05;;;;;;;22.78;91.25;100512.56;8336024;28;20045;-50
2022/08/26 17:16:22;;;;;;;6.90;1.85;;;;;;;22.74;91.01;100511.31;8346198;28;20049;-50
2022/08/26 17:20:23;;;;;;;7.40;1.60;;;;;;;22.77;91.39;100521.06;8347885;28;20053;-54
2022/08/26 17:24:24;;;;;;;4.60;1.83;;;;;;;22.69;90.69;100516.63;8346124;28;20056;-53
2022/08/26 17:28:24;;;;;;;11.63;1.80;;;;;;;22.66;91.02;100516.25;8349282;28;20040;-53
2022/08/26 17:32:25;;;;;;;8.00;2.37;;;;;;;22.61;90.80;100511.38;8349617;28;20036;-54
2022/08/26 17:36:25;;;;;;;8.48;1.67;;;;;;;22.67;90.93;100531.72;8348311;28;20272;-53
2022/08/26 17:40:29;;;;;;;8.70;1.40;;;;;;;22.57;91.25;100526.66;8353750;28;20102;-53
2022/08/26 17:44:29;;;;;;;5.90;1.38;;;;;;;22.55;91.58;100526.03;8355440;28;20135;-50
2022/08/26 17:48:30;;;;;;;8.77;1.80;;;;;;;22.50;91.58;100525.84;8350701;28;20498;-52
2022/08/26 17:52:31;;;;;;;6.35;1.33;;;;;;;22.55;91.72;100538.97;8354807;28;20123;-53
2022/08/26 17:56:31;;;;;;;7.72;1.25;;;;;;;22.46;92.31;100535.56;8354551;28;20045;-54
2022/08/26 18:00:31;;;;;;;8.80;1.98;;;;;;;22.48;92.29;100538.94;8352667;28;20041;-53
2022/08/26 18:04:32;;;;;;;7.55;1.23;;;;;;;22.38;92.51;100530.28;8352980;28;20041;-52
2022/08/26 18:08:32;;;;;;;7.35;1.20;;;;;;;22.43;92.43;100525.00;8345169;28;20037;-53
2022/08/26 18:12:33;;;;;;;9.10;1.20;;;;;;;22.37;93.24;100528.59;8352180;28;20238;-53
2022/08/26 18:16:37;;;;;;;6.85;1.17;;;;;;;22.31;93.24;100521.22;8353505;28;20285;-50
2022/08/26 18:20:38;;;;;;;3.37;0.97;;;;;;;22.29;93.58;100531.59;8353952;28;20040;-53
2022/08/26 18:24:40;;;;;;;4.72;1.00;;;;;;;22.29;92.71;100523.31;8354756;28;21636;-54
2022/08/26 18:28:40;;;;;;;7.50;1.73;;;;;;;22.11;96.42;100528.66;8346620;28;20087;-52
2022/08/26 18:32:41;;;;;;;6.80;1.47;;;;;;;21.96;100.00;100528.03;8385511;28;20094;-53
2022/08/26 18:36:42;;;;;;;12.38;1.83;;;;;;;21.73;100.00;100530.38;8353361;28;20697;-53
2022/08/26 18:40:44;;;;;;;10.27;1.77;;;;;;;21.65;100.00;100538.81;8355346;28;20631;-53
2022/08/26 18:44:44;;;;;;;5.32;1.77;;;;;;;21.62;100.00;100542.00;8355295;28;20116;-53
2022/08/26 18:48:45;;;;;;;5.68;1.80;;;;;;;21.62;100.00;100542.00;8354246;28;20037;-53